sensor_id;sensor_type;location;lat;lon;timestamp;pressure;altitude;pressure_sealevel;temperature;humidity
78409;BME280;67697;50.750;-3.270;2023-08-24T00:00:18;100891.72;;;19.19;53.54
78409;BME280;67697;50.750;-3.270;2023-08-24T00:02:43;100897.54;;;18.74;53.91
78409;BME280;67697;50.750;-3.270;2023-08-24T00:05:09;100890.24;;;18.10;56.41
78409;BME280;67697;50.750;-3.270;2023-08-24T00:07:34;100863.77;;;17.37;60.06
78409;BME280;67697;50.750;-3.270;2023-08-24T00:10:00;100825.97;;;17.77;59.56
78409;BME280;67697;50.750;-3.270;2023-08-24T00:12:25;100798.55;;;17.88;59.86
78409;BME280;67697;50.750;-3.270;2023-08-24T00:14:51;100785.85;;;17.75;60.73
78409;BME280;67697;50.750;-3.270;2023-08-24T00:17:16;100784.82;;;17.37;61.54
78409;BME280;67697;50.750;-3.270;2023-08-24T00:19:42;100800.67;;;18.95;58.25
78409;BME280;67697;50.750;-3.270;2023-08-24T00:22:07;100810.36;;;17.53;60.50
78409;BME280;67697;50.750;-3.270;2023-08-24T00:24:33;100823.79;;;19.09;55.66
78409;BME280;67697;50.750;-3.270;2023-08-24T00:26:58;100834.09;;;19.80;55.35
78409;BME280;67697;50.750;-3.270;2023-08-24T00:29:24;100843.47;;;19.28;54.75
78409;BME280;67697;50.750;-3.270;2023-08-24T00:31:49;100843.09;;;18.02;59.10
78409;BME280;67697;50.750;-3.270;2023-08-24T00:34:15;100850.30;;;17.90;59.03
78409;BME280;67697;50.750;-3.270;2023-08-24T00:36:41;100848.51;;;18.21;58.82
78409;BME280;67697;50.750;-3.270;2023-08-24T00:39:06;100845.76;;;18.29;58.16
78409;BME280;67697;50.750;-3.270;2023-08-24T00:41:32;100845.02;;;18.68;58.49
78409;BME280;67697;50.750;-3.270;2023-08-24T00:43:57;100859.17;;;16.06;63.56
78409;BME280;67697;50.750;-3.270;2023-08-24T00:46:23;100877.87;;;16.91;63.40
78409;BME280;67697;50.750;-3.270;2023-08-24T00:48:49;100894.30;;;17.19;64.94
78409;BME280;67697;50.750;-3.270;2023-08-24T00:51:14;100894.20;;;19.71;56.78
78409;BME280;67697;50.750;-3.270;2023-08-24T00:53:39;100880.80;;;19.20;56.49
78409;BME280;67697;50.750;-3.270;2023-08-24T00:56:04;100871.45;;;19.23;56.78
78409;BME280;67697;50.750;-3.270;2023-08-24T00:58:31;100864.78;;;19.80;55.56
78409;BME280;67697;50.750;-3.270;2023-08-24T01:00:57;100857.17;;;19.41;55.90
78409;BME280;67697;50.750;-3.270;2023-08-24T01:03:22;100842.72;;;19.51;55.14
78409;BME280;67697;50.750;-3.270;2023-08-24T01:05:47;100852.10;;;20.12;53.63
78409;BME280;67697;50.750;-3.270;2023-08-24T01:08:13;100862.69;;;19.06;55.35
78409;BME280;67697;50.750;-3.270;2023-08-24T01:10:43;100840.10;;;20.46;53.60
78409;BME280;67697;50.750;-3.270;2023-08-24T01:13:08;100825.29;;;20.80;52.40
78409;BME280;67697;50.750;-3.270;2023-08-24T01:15:35;100827.53;;;20.49;52.15
78409;BME280;67697;50.750;-3.270;2023-08-24T01:18:00;100836.99;;;19.18;55.38
78409;BME280;67697;50.750;-3.270;2023-08-24T01:20:20;100829.93;;;19.99;53.07
78409;BME280;67697;50.750;-3.270;2023-08-24T01:22:54;100806.18;;;19.51;53.76
78409;BME280;67697;50.750;-3.270;2023-08-24T01:25:15;100797.19;;;18.98;56.16
78409;BME280;67697;50.750;-3.270;2023-08-24T01:27:42;100806.28;;;16.50;64.74
78409;BME280;67697;50.750;-3.270;2023-08-24T01:30:02;100813.36;;;15.52;69.10
78409;BME280;67697;50.750;-3.270;2023-08-24T01:32:30;100837.09;;;18.87;58.66
78409;BME280;67697;50.750;-3.270;2023-08-24T01:34:53;100856.72;;;19.40;56.99
78409;BME280;67697;50.750;-3.270;2023-08-24T01:37:19;100861.24;;;18.28;59.71
78409;BME280;67697;50.750;-3.270;2023-08-24T01:39:52;100837.06;;;17.59;61.15
78409;BME280;67697;50.750;-3.270;2023-08-24T01:42:16;100790.78;;;17.53;63.35
78409;BME280;67697;50.750;-3.270;2023-08-24T01:44:39;100793.01;;;14.86;72.56
78409;BME280;67697;50.750;-3.270;2023-08-24T01:47:04;100812.04;;;16.97;66.62
78409;BME280;67697;50.750;-3.270;2023-08-24T01:49:27;100812.08;;;17.86;63.64
78409;BME280;67697;50.750;-3.270;2023-08-24T01:51:53;100867.45;;;16.84;65.58
78409;BME280;67697;50.750;-3.270;2023-08-24T01:54:18;100886.38;;;16.80;66.22
78409;BME280;67697;50.750;-3.270;2023-08-24T01:56:44;100865.58;;;18.08;62.42
78409;BME280;67697;50.750;-3.270;2023-08-24T01:59:09;100860.08;;;18.40;61.51
78409;BME280;67697;50.750;-3.270;2023-08-24T02:01:35;100854.37;;;19.21;59.53
78409;BME280;67697;50.750;-3.270;2023-08-24T02:04:00;100858.81;;;18.98;59.44
78409;BME280;67697;50.750;-3.270;2023-08-24T02:06:26;100864.70;;;18.86;57.92
78409;BME280;67697;50.750;-3.270;2023-08-24T02:08:52;100836.35;;;19.94;55.66
78409;BME280;67697;50.750;-3.270;2023-08-24T02:11:17;100834.11;;;18.81;58.90
78409;BME280;67697;50.750;-3.270;2023-08-24T02:13:42;100820.79;;;18.49;58.82
78409;BME280;67697;50.750;-3.270;2023-08-24T02:16:08;100806.12;;;18.98;58.82
78409;BME280;67697;50.750;-3.270;2023-08-24T02:18:34;100801.80;;;19.78;56.09
78409;BME280;67697;50.750;-3.270;2023-08-24T02:20:59;100784.72;;;19.47;56.77
78409;BME280;67697;50.750;-3.270;2023-08-24T02:23:25;100763.58;;;19.17;57.33
78409;BME280;67697;50.750;-3.270;2023-08-24T02:25:50;100750.10;;;19.15;58.28
78409;BME280;67697;50.750;-3.270;2023-08-24T02:28:16;100764.92;;;19.06;58.13
78409;BME280;67697;50.750;-3.270;2023-08-24T02:30:41;100791.21;;;17.17;62.46
78409;BME280;67697;50.750;-3.270;2023-08-24T02:33:07;100800.74;;;18.95;58.81
78409;BME280;67697;50.750;-3.270;2023-08-24T02:35:32;100795.71;;;18.07;59.34
78409;BME280;67697;50.750;-3.270;2023-08-24T02:37:58;100798.02;;;18.40;60.00
78409;BME280;67697;50.750;-3.270;2023-08-24T02:40:23;100807.23;;;18.50;59.54
78409;BME280;67697;50.750;-3.270;2023-08-24T02:42:49;100799.26;;;19.25;57.51
78409;BME280;67697;50.750;-3.270;2023-08-24T02:45:14;100774.07;;;19.68;56.30
78409;BME280;67697;50.750;-3.270;2023-08-24T02:47:40;100761.94;;;18.86;58.45
78409;BME280;67697;50.750;-3.270;2023-08-24T02:50:06;100757.33;;;19.18;57.53
78409;BME280;67697;50.750;-3.270;2023-08-24T02:52:31;100762.80;;;19.07;57.62
78409;BME280;67697;50.750;-3.270;2023-08-24T02:54:56;100772.45;;;16.76;64.52
78409;BME280;67697;50.750;-3.270;2023-08-24T02:57:22;100793.39;;;17.78;62.58
78409;BME280;67697;50.750;-3.270;2023-08-24T02:59:47;100789.67;;;18.81;58.63
78409;BME280;67697;50.750;-3.270;2023-08-24T03:02:13;100782.88;;;18.18;60.34
78409;BME280;67697;50.750;-3.270;2023-08-24T03:04:38;100782.05;;;19.46;56.81
78409;BME280;67697;50.750;-3.270;2023-08-24T03:07:04;100786.21;;;20.39;55.17
78409;BME280;67697;50.750;-3.270;2023-08-24T03:09:29;100794.52;;;20.93;53.68
78409;BME280;67697;50.750;-3.270;2023-08-24T03:11:55;100790.08;;;20.05;55.42
78409;BME280;67697;50.750;-3.270;2023-08-24T03:14:20;100795.63;;;21.39;52.51
78409;BME280;67697;50.750;-3.270;2023-08-24T03:16:46;100777.06;;;21.03;52.62
78409;BME280;67697;50.750;-3.270;2023-08-24T03:19:11;100769.78;;;19.98;55.58
78409;BME280;67697;50.750;-3.270;2023-08-24T03:21:37;100757.92;;;20.78;54.83
78409;BME280;67697;50.750;-3.270;2023-08-24T03:24:02;100789.30;;;17.24;62.62
78409;BME280;67697;50.750;-3.270;2023-08-24T03:26:28;100801.95;;;19.96;56.93
78409;BME280;67697;50.750;-3.270;2023-08-24T03:28:53;100796.40;;;20.79;53.55
78409;BME280;67697;50.750;-3.270;2023-08-24T03:31:19;100785.67;;;20.72;53.35
78409;BME280;67697;50.750;-3.270;2023-08-24T03:33:45;100770.69;;;20.40;54.56
78409;BME280;67697;50.750;-3.270;2023-08-24T03:36:10;100767.06;;;16.97;64.06
78409;BME280;67697;50.750;-3.270;2023-08-24T03:38:35;100772.88;;;19.23;58.96
78409;BME280;67697;50.750;-3.270;2023-08-24T03:41:01;100783.32;;;20.08;55.48
78409;BME280;67697;50.750;-3.270;2023-08-24T03:43:26;100780.39;;;19.33;58.14
78409;BME280;67697;50.750;-3.270;2023-08-24T03:45:52;100779.76;;;19.12;58.71
78409;BME280;67697;50.750;-3.270;2023-08-24T03:48:18;100773.03;;;19.51;57.38
78409;BME280;67697;50.750;-3.270;2023-08-24T03:50:43;100762.28;;;18.34;60.93
78409;BME280;67697;50.750;-3.270;2023-08-24T03:53:09;100765.92;;;20.13;56.60
78409;BME280;67697;50.750;-3.270;2023-08-24T03:55:34;100762.42;;;20.67;55.38
78409;BME280;67697;50.750;-3.270;2023-08-24T03:58:00;100777.98;;;17.41;62.95
78409;BME280;67697;50.750;-3.270;2023-08-24T04:00:25;100768.36;;;19.47;58.71
78409;BME280;67697;50.750;-3.270;2023-08-24T04:02:51;100770.96;;;19.08;57.45
78409;BME280;67697;50.750;-3.270;2023-08-24T04:05:17;100764.40;;;20.56;55.44
78409;BME280;67697;50.750;-3.270;2023-08-24T04:07:42;100763.56;;;21.13;53.23
78409;BME280;67697;50.750;-3.270;2023-08-24T04:10:08;100766.08;;;20.89;53.21
78409;BME280;67697;50.750;-3.270;2023-08-24T04:12:34;100769.86;;;20.50;54.10
78409;BME280;67697;50.750;-3.270;2023-08-24T04:14:59;100765.15;;;20.41;54.27
78409;BME280;67697;50.750;-3.270;2023-08-24T04:17:25;100755.17;;;21.65;52.19
78409;BME280;67697;50.750;-3.270;2023-08-24T04:19:50;100739.71;;;21.39;52.46
78409;BME280;67697;50.750;-3.270;2023-08-24T04:22:15;100742.55;;;20.71;53.83
78409;BME280;67697;50.750;-3.270;2023-08-24T04:24:41;100746.89;;;19.99;55.13
78409;BME280;67697;50.750;-3.270;2023-08-24T04:27:07;100764.77;;;19.44;56.57
78409;BME280;67697;50.750;-3.270;2023-08-24T04:29:32;100788.65;;;19.06;59.31
78409;BME280;67697;50.750;-3.270;2023-08-24T04:31:58;100806.63;;;18.73;59.65
78409;BME280;67697;50.750;-3.270;2023-08-24T04:34:23;100825.65;;;19.51;58.41
78409;BME280;67697;50.750;-3.270;2023-08-24T04:36:49;100811.08;;;18.84;60.42
78409;BME280;67697;50.750;-3.270;2023-08-24T04:39:15;100811.58;;;18.20;63.00
78409;BME280;67697;50.750;-3.270;2023-08-24T04:41:40;100810.94;;;18.18;63.77
78409;BME280;67697;50.750;-3.270;2023-08-24T04:44:06;100793.67;;;18.71;63.02
78409;BME280;67697;50.750;-3.270;2023-08-24T04:46:31;100776.44;;;18.74;62.45
78409;BME280;67697;50.750;-3.270;2023-08-24T04:48:57;100767.33;;;16.97;68.71
78409;BME280;67697;50.750;-3.270;2023-08-24T04:51:22;100779.74;;;17.90;65.19
78409;BME280;67697;50.750;-3.270;2023-08-24T04:53:48;100785.22;;;18.79;60.97
78409;BME280;67697;50.750;-3.270;2023-08-24T04:56:13;100764.20;;;19.48;60.06
78409;BME280;67697;50.750;-3.270;2023-08-24T04:58:39;100755.79;;;18.84;62.20
78409;BME280;67697;50.750;-3.270;2023-08-24T05:01:04;100753.77;;;18.50;62.87
78409;BME280;67697;50.750;-3.270;2023-08-24T05:03:30;100755.10;;;18.01;65.34
78409;BME280;67697;50.750;-3.270;2023-08-24T05:05:55;100801.09;;;16.46;69.08
78409;BME280;67697;50.750;-3.270;2023-08-24T05:08:21;100816.76;;;18.58;63.54
78409;BME280;67697;50.750;-3.270;2023-08-24T05:10:46;100805.81;;;19.58;60.86
78409;BME280;67697;50.750;-3.270;2023-08-24T05:13:12;100802.27;;;19.51;60.20
78409;BME280;67697;50.750;-3.270;2023-08-24T05:15:37;100790.58;;;20.28;57.95
78409;BME280;67697;50.750;-3.270;2023-08-24T05:18:03;100778.82;;;20.35;57.48
78409;BME280;67697;50.750;-3.270;2023-08-24T05:20:28;100752.60;;;18.71;60.69
78409;BME280;67697;50.750;-3.270;2023-08-24T05:22:54;100725.46;;;17.69;64.07
78409;BME280;67697;50.750;-3.270;2023-08-24T05:25:19;100716.42;;;18.53;60.96
78409;BME280;67697;50.750;-3.270;2023-08-24T05:27:45;100715.04;;;18.49;61.41
78409;BME280;67697;50.750;-3.270;2023-08-24T05:30:11;100741.81;;;18.50;61.53
78409;BME280;67697;50.750;-3.270;2023-08-24T05:32:36;100763.91;;;19.56;58.18
78409;BME280;67697;50.750;-3.270;2023-08-24T05:35:01;100749.85;;;19.29;58.78
78409;BME280;67697;50.750;-3.270;2023-08-24T05:37:27;100739.26;;;19.15;58.73
78409;BME280;67697;50.750;-3.270;2023-08-24T05:39:52;100746.49;;;18.02;62.64
78409;BME280;67697;50.750;-3.270;2023-08-24T05:42:18;100750.80;;;18.65;61.51
78409;BME280;67697;50.750;-3.270;2023-08-24T05:44:43;100731.29;;;20.57;56.08
78409;BME280;67697;50.750;-3.270;2023-08-24T05:47:08;100717.56;;;19.90;57.21
78409;BME280;67697;50.750;-3.270;2023-08-24T05:49:34;100702.23;;;21.04;55.02
78409;BME280;67697;50.750;-3.270;2023-08-24T05:51:59;100712.47;;;18.01;62.05
78409;BME280;67697;50.750;-3.270;2023-08-24T05:54:25;100694.88;;;18.72;60.30
78409;BME280;67697;50.750;-3.270;2023-08-24T05:56:51;100676.89;;;20.85;54.94
78409;BME280;67697;50.750;-3.270;2023-08-24T05:59:16;100715.85;;;18.33;63.26
78409;BME280;67697;50.750;-3.270;2023-08-24T06:01:42;100692.94;;;19.79;59.41
78409;BME280;67697;50.750;-3.270;2023-08-24T06:04:07;100682.85;;;19.44;59.26
78409;BME280;67697;50.750;-3.270;2023-08-24T06:06:33;100716.62;;;18.49;62.81
78409;BME280;67697;50.750;-3.270;2023-08-24T06:08:58;100685.26;;;19.69;59.55
78409;BME280;67697;50.750;-3.270;2023-08-24T06:11:24;100670.78;;;20.49;58.04
78409;BME280;67697;50.750;-3.270;2023-08-24T06:13:49;100679.55;;;19.73;57.98
78409;BME280;67697;50.750;-3.270;2023-08-24T06:16:15;100682.39;;;18.44;62.73
78409;BME280;67697;50.750;-3.270;2023-08-24T06:18:40;100705.20;;;16.11;70.42
78409;BME280;67697;50.750;-3.270;2023-08-24T06:21:06;100683.79;;;19.46;60.95
78409;BME280;67697;50.750;-3.270;2023-08-24T06:23:31;100669.17;;;19.63;60.72
78409;BME280;67697;50.750;-3.270;2023-08-24T06:25:57;100651.43;;;19.99;60.39
78409;BME280;67697;50.750;-3.270;2023-08-24T06:28:22;100638.71;;;19.99;61.18
78409;BME280;67697;50.750;-3.270;2023-08-24T06:30:48;100631.76;;;19.13;63.29
78409;BME280;67697;50.750;-3.270;2023-08-24T06:35:59;100604.18;;;17.13;66.76
78409;BME280;67697;50.750;-3.270;2023-08-24T06:43:11;100498.93;;;17.62;67.76
78409;BME280;67697;50.750;-3.270;2023-08-24T06:45:22;100512.30;;;17.35;68.53
78409;BME280;67697;50.750;-3.270;2023-08-24T06:47:47;100531.00;;;18.57;64.51
78409;BME280;67697;50.750;-3.270;2023-08-24T06:50:13;100540.06;;;18.42;65.50
78409;BME280;67697;50.750;-3.270;2023-08-24T06:52:38;100554.11;;;18.74;64.90
78409;BME280;67697;50.750;-3.270;2023-08-24T06:55:05;100560.57;;;18.43;65.80
78409;BME280;67697;50.750;-3.270;2023-08-24T06:57:29;100553.43;;;16.19;71.62
78409;BME280;67697;50.750;-3.270;2023-08-24T06:59:55;100560.31;;;17.97;69.43
78409;BME280;67697;50.750;-3.270;2023-08-24T07:02:21;100560.70;;;18.37;68.25
78409;BME280;67697;50.750;-3.270;2023-08-24T07:04:46;100554.07;;;19.32;65.37
78409;BME280;67697;50.750;-3.270;2023-08-24T07:07:12;100540.34;;;19.00;65.77
78409;BME280;67697;50.750;-3.270;2023-08-24T07:09:37;100550.89;;;16.78;72.83
78409;BME280;67697;50.750;-3.270;2023-08-24T07:12:03;100548.94;;;19.15;66.34
78409;BME280;67697;50.750;-3.270;2023-08-24T07:14:29;100535.33;;;18.93;65.65
78409;BME280;67697;50.750;-3.270;2023-08-24T07:16:54;100558.39;;;17.37;68.46
78409;BME280;67697;50.750;-3.270;2023-08-24T07:19:19;100572.04;;;17.68;68.06
78409;BME280;67697;50.750;-3.270;2023-08-24T07:21:45;100581.62;;;18.70;67.29
78409;BME280;67697;50.750;-3.270;2023-08-24T07:24:22;100589.60;;;19.44;64.90
78409;BME280;67697;50.750;-3.270;2023-08-24T07:26:36;100593.79;;;17.90;68.84
78409;BME280;67697;50.750;-3.270;2023-08-24T07:29:02;100591.37;;;15.66;75.19
78409;BME280;67697;50.750;-3.270;2023-08-24T07:31:27;100599.57;;;16.80;73.20
78409;BME280;67697;50.750;-3.270;2023-08-24T07:33:52;100591.18;;;17.60;70.76
78409;BME280;67697;50.750;-3.270;2023-08-24T07:36:18;100589.51;;;17.76;70.86
78409;BME280;67697;50.750;-3.270;2023-08-24T07:38:45;100576.96;;;17.15;73.95
78409;BME280;67697;50.750;-3.270;2023-08-24T07:41:09;100566.58;;;16.78;74.19
78409;BME280;67697;50.750;-3.270;2023-08-24T07:43:35;100555.04;;;18.31;69.03
78409;BME280;67697;50.750;-3.270;2023-08-24T07:46:00;100540.89;;;17.61;70.64
78409;BME280;67697;50.750;-3.270;2023-08-24T07:48:26;100523.31;;;18.97;67.88
78409;BME280;67697;50.750;-3.270;2023-08-24T07:50:51;100513.59;;;18.34;67.86
78409;BME280;67697;50.750;-3.270;2023-08-24T07:53:17;100522.60;;;18.88;65.43
78409;BME280;67697;50.750;-3.270;2023-08-24T07:55:43;100522.90;;;18.75;68.60
78409;BME280;67697;50.750;-3.270;2023-08-24T07:58:08;100548.52;;;17.40;70.39
78409;BME280;67697;50.750;-3.270;2023-08-24T08:00:40;100567.10;;;17.69;70.87
78409;BME280;67697;50.750;-3.270;2023-08-24T08:03:06;100580.14;;;17.47;71.12
78409;BME280;67697;50.750;-3.270;2023-08-24T08:05:29;100595.94;;;18.30;69.83
78409;BME280;67697;50.750;-3.270;2023-08-24T08:07:50;100598.38;;;18.48;69.90
78409;BME280;67697;50.750;-3.270;2023-08-24T08:10:15;100607.60;;;18.29;68.85
78409;BME280;67697;50.750;-3.270;2023-08-24T08:12:41;100608.41;;;17.80;68.90
78409;BME280;67697;50.750;-3.270;2023-08-24T08:15:07;100606.58;;;19.14;67.08
78409;BME280;67697;50.750;-3.270;2023-08-24T08:17:32;100602.96;;;19.94;62.70
78409;BME280;67697;50.750;-3.270;2023-08-24T08:19:57;100609.77;;;16.71;75.11
78409;BME280;67697;50.750;-3.270;2023-08-24T08:22:23;100615.80;;;18.48;69.28
78409;BME280;67697;50.750;-3.270;2023-08-24T08:24:48;100600.78;;;18.63;68.28
78409;BME280;67697;50.750;-3.270;2023-08-24T08:29:59;100611.57;;;19.31;67.67
78409;BME280;67697;50.750;-3.270;2023-08-24T08:41:52;100620.67;;;18.44;64.81
78409;BME280;67697;50.750;-3.270;2023-08-24T08:44:13;100624.30;;;20.71;60.65
78409;BME280;67697;50.750;-3.270;2023-08-24T08:46:39;100641.64;;;20.75;60.48
78409;BME280;67697;50.750;-3.270;2023-08-24T08:49:04;100644.18;;;18.81;63.66
78409;BME280;67697;50.750;-3.270;2023-08-24T08:51:29;100640.90;;;21.19;59.16
78409;BME280;67697;50.750;-3.270;2023-08-24T08:53:54;100646.27;;;21.58;57.64
78409;BME280;67697;50.750;-3.270;2023-08-24T08:56:19;100648.89;;;19.48;59.69
78409;BME280;67697;50.750;-3.270;2023-08-24T08:58:45;100658.01;;;19.86;61.32
78409;BME280;67697;50.750;-3.270;2023-08-24T09:01:12;100668.09;;;21.31;58.98
78409;BME280;67697;50.750;-3.270;2023-08-24T09:03:36;100678.69;;;22.04;56.47
78409;BME280;67697;50.750;-3.270;2023-08-24T09:06:03;100681.37;;;23.76;53.94
78409;BME280;67697;50.750;-3.270;2023-08-24T09:08:27;100684.29;;;23.21;52.39
78409;BME280;67697;50.750;-3.270;2023-08-24T09:10:52;100683.34;;;22.91;53.03
78409;BME280;67697;50.750;-3.270;2023-08-24T09:13:18;100683.14;;;23.90;52.05
78409;BME280;67697;50.750;-3.270;2023-08-24T09:15:43;100682.59;;;23.61;53.08
78409;BME280;67697;50.750;-3.270;2023-08-24T09:18:09;100694.27;;;22.37;53.65
78409;BME280;67697;50.750;-3.270;2023-08-24T09:20:36;100692.55;;;23.50;49.17
78409;BME280;67697;50.750;-3.270;2023-08-24T09:23:00;100697.51;;;22.33;52.30
78409;BME280;67697;50.750;-3.270;2023-08-24T09:25:25;100704.40;;;23.19;51.05
78409;BME280;67697;50.750;-3.270;2023-08-24T09:27:57;100702.09;;;22.81;50.99
78409;BME280;67697;50.750;-3.270;2023-08-24T09:30:16;100702.11;;;23.49;51.18
78409;BME280;67697;50.750;-3.270;2023-08-24T09:32:42;100711.42;;;23.10;51.80
78409;BME280;67697;50.750;-3.270;2023-08-24T09:35:09;100713.14;;;23.01;53.20
78409;BME280;67697;50.750;-3.270;2023-08-24T09:37:34;100703.77;;;23.41;50.97
78409;BME280;67697;50.750;-3.270;2023-08-24T09:40:02;100698.95;;;23.15;50.62
78409;BME280;67697;50.750;-3.270;2023-08-24T09:42:25;100703.43;;;22.60;50.59
78409;BME280;67697;50.750;-3.270;2023-08-24T09:44:49;100704.52;;;23.41;46.59
78409;BME280;67697;50.750;-3.270;2023-08-24T09:47:14;100705.21;;;24.39;47.27
78409;BME280;67697;50.750;-3.270;2023-08-24T09:49:40;100701.62;;;24.22;48.96
78409;BME280;67697;50.750;-3.270;2023-08-24T09:52:08;100706.14;;;22.81;52.31
78409;BME280;67697;50.750;-3.270;2023-08-24T09:54:32;100711.13;;;22.67;54.06
78409;BME280;67697;50.750;-3.270;2023-08-24T09:56:58;100717.86;;;22.36;56.37
78409;BME280;67697;50.750;-3.270;2023-08-24T09:59:22;100704.25;;;23.04;52.57
78409;BME280;67697;50.750;-3.270;2023-08-24T10:01:49;100676.20;;;23.12;49.53
78409;BME280;67697;50.750;-3.270;2023-08-24T10:04:14;100682.07;;;23.30;48.99
78409;BME280;67697;50.750;-3.270;2023-08-24T10:06:40;100697.61;;;23.55;48.60
78409;BME280;67697;50.750;-3.270;2023-08-24T10:09:06;100695.77;;;24.70;45.72
78409;BME280;67697;50.750;-3.270;2023-08-24T10:11:31;100683.07;;;24.34;43.36
78409;BME280;67697;50.750;-3.270;2023-08-24T10:14:00;100673.26;;;24.08;45.35
78409;BME280;67697;50.750;-3.270;2023-08-24T10:16:21;100680.77;;;22.57;48.48
78409;BME280;67697;50.750;-3.270;2023-08-24T10:18:46;100679.72;;;22.94;48.94
78409;BME280;67697;50.750;-3.270;2023-08-24T10:21:11;100669.81;;;23.78;49.97
78409;BME280;67697;50.750;-3.270;2023-08-24T10:23:37;100671.52;;;23.69;48.40
78409;BME280;67697;50.750;-3.270;2023-08-24T10:26:03;100664.45;;;24.30;46.49
78409;BME280;67697;50.750;-3.270;2023-08-24T10:28:28;100663.48;;;23.83;47.22
78409;BME280;67697;50.750;-3.270;2023-08-24T10:30:54;100663.35;;;24.41;45.71
78409;BME280;67697;50.750;-3.270;2023-08-24T10:33:18;100659.10;;;24.54;46.21
78409;BME280;67697;50.750;-3.270;2023-08-24T10:35:44;100655.99;;;24.45;48.97
78409;BME280;67697;50.750;-3.270;2023-08-24T10:38:23;100666.42;;;22.67;53.74
78409;BME280;67697;50.750;-3.270;2023-08-24T10:40:36;100653.65;;;23.82;51.99
78409;BME280;67697;50.750;-3.270;2023-08-24T10:43:03;100649.69;;;23.75;47.42
78409;BME280;67697;50.750;-3.270;2023-08-24T10:45:25;100643.78;;;23.89;48.85
78409;BME280;67697;50.750;-3.270;2023-08-24T10:47:52;100651.16;;;24.16;47.76
78409;BME280;67697;50.750;-3.270;2023-08-24T10:50:16;100642.97;;;24.69;45.16
78409;BME280;67697;50.750;-3.270;2023-08-24T10:52:44;100638.12;;;24.89;42.42
78409;BME280;67697;50.750;-3.270;2023-08-24T10:57:36;100619.19;;;25.48;42.25
78409;BME280;67697;50.750;-3.270;2023-08-24T10:59:59;100639.32;;;22.24;48.42
78409;BME280;67697;50.750;-3.270;2023-08-24T11:02:23;100625.62;;;24.46;44.76
78409;BME280;67697;50.750;-3.270;2023-08-24T11:05:04;100621.46;;;22.95;46.94
78409;BME280;67697;50.750;-3.270;2023-08-24T11:07:16;100620.31;;;21.64;47.39
78409;BME280;67697;50.750;-3.270;2023-08-24T11:09:46;100613.38;;;24.07;43.67
78409;BME280;67697;50.750;-3.270;2023-08-24T11:12:05;100614.92;;;23.69;44.94
78409;BME280;67697;50.750;-3.270;2023-08-24T11:14:31;100614.42;;;21.11;50.48
78409;BME280;67697;50.750;-3.270;2023-08-24T11:16:58;100597.37;;;23.84;45.77
78409;BME280;67697;50.750;-3.270;2023-08-24T11:19:22;100588.95;;;24.89;43.97
78409;BME280;67697;50.750;-3.270;2023-08-24T11:21:47;100598.34;;;25.11;42.66
78409;BME280;67697;50.750;-3.270;2023-08-24T11:24:14;100602.56;;;24.62;42.72
78409;BME280;67697;50.750;-3.270;2023-08-24T11:26:41;100603.55;;;23.94;44.14
78409;BME280;67697;50.750;-3.270;2023-08-24T11:29:05;100611.18;;;24.00;45.49
78409;BME280;67697;50.750;-3.270;2023-08-24T11:31:29;100622.13;;;24.44;46.52
78409;BME280;67697;50.750;-3.270;2023-08-24T11:33:55;100627.80;;;24.83;45.89
78409;BME280;67697;50.750;-3.270;2023-08-24T11:36:20;100624.70;;;24.16;45.34
78409;BME280;67697;50.750;-3.270;2023-08-24T11:38:45;100607.15;;;25.09;42.65
78409;BME280;67697;50.750;-3.270;2023-08-24T11:41:12;100594.57;;;25.53;43.87
78409;BME280;67697;50.750;-3.270;2023-08-24T11:43:36;100583.05;;;25.41;43.61
78409;BME280;67697;50.750;-3.270;2023-08-24T11:46:02;100583.52;;;25.55;44.04
78409;BME280;67697;50.750;-3.270;2023-08-24T11:48:27;100581.14;;;24.53;43.66
78409;BME280;67697;50.750;-3.270;2023-08-24T11:50:53;100569.29;;;24.52;42.70
78409;BME280;67697;50.750;-3.270;2023-08-24T11:53:19;100568.00;;;24.74;42.32
78409;BME280;67697;50.750;-3.270;2023-08-24T11:55:43;100565.13;;;24.52;43.68
78409;BME280;67697;50.750;-3.270;2023-08-24T11:58:14;100555.67;;;25.36;44.77
78409;BME280;67697;50.750;-3.270;2023-08-24T12:00:34;100560.25;;;24.24;47.08
78409;BME280;67697;50.750;-3.270;2023-08-24T12:03:00;100557.72;;;23.69;47.27
78409;BME280;67697;50.750;-3.270;2023-08-24T12:05:26;100556.79;;;22.68;47.89
78409;BME280;67697;50.750;-3.270;2023-08-24T12:07:52;100560.10;;;22.59;47.69
78409;BME280;67697;50.750;-3.270;2023-08-24T12:10:16;100559.66;;;22.45;49.66
78409;BME280;67697;50.750;-3.270;2023-08-24T12:12:41;100564.06;;;20.34;55.46
78409;BME280;67697;50.750;-3.270;2023-08-24T12:15:08;100567.13;;;21.26;55.04
78409;BME280;67697;50.750;-3.270;2023-08-24T12:17:42;100555.61;;;23.55;50.35
78409;BME280;67697;50.750;-3.270;2023-08-24T12:19:59;100557.83;;;24.05;48.78
78409;BME280;67697;50.750;-3.270;2023-08-24T12:22:23;100548.79;;;22.88;57.00
78409;BME280;67697;50.750;-3.270;2023-08-24T12:24:48;100541.84;;;23.50;51.77
78409;BME280;67697;50.750;-3.270;2023-08-24T12:29:44;100536.94;;;23.39;49.70
78409;BME280;67697;50.750;-3.270;2023-08-24T12:32:05;100530.01;;;23.20;52.34
78409;BME280;67697;50.750;-3.270;2023-08-24T12:34:30;100519.66;;;23.80;52.74
78409;BME280;67697;50.750;-3.270;2023-08-24T12:36:56;100517.02;;;24.26;49.39
78409;BME280;67697;50.750;-3.270;2023-08-24T12:39:21;100500.80;;;24.42;49.43
78409;BME280;67697;50.750;-3.270;2023-08-24T12:41:46;100501.74;;;24.25;45.76
78409;BME280;67697;50.750;-3.270;2023-08-24T12:44:12;100497.22;;;24.43;49.00
78409;BME280;67697;50.750;-3.270;2023-08-24T12:46:38;100501.98;;;23.53;49.96
78409;BME280;67697;50.750;-3.270;2023-08-24T12:49:03;100502.51;;;23.05;53.30
78409;BME280;67697;50.750;-3.270;2023-08-24T12:51:29;100496.78;;;23.63;50.86
78409;BME280;67697;50.750;-3.270;2023-08-24T12:53:54;100493.14;;;22.61;53.04